createdAt,value
2022-07-30T00:00:23.814Z,6.75
2022-07-30T00:02:52.579Z,6.82
2022-07-30T00:05:19.570Z,6.35
2022-07-30T00:07:46.362Z,6.60
2022-07-30T00:10:13.207Z,6.45
2022-07-30T00:12:39.932Z,6.90
2022-07-30T00:15:07.466Z,6.40
2022-07-30T00:17:34.248Z,6.22
2022-07-30T00:20:01.285Z,5.97
2022-07-30T00:22:30.865Z,6.03
2022-07-30T00:24:57.726Z,6.50
2022-07-30T00:27:24.595Z,6.13
2022-07-30T00:29:51.299Z,6.35
2022-07-30T00:32:18.045Z,6.22
2022-07-30T00:34:44.880Z,5.90
2022-07-30T00:37:11.535Z,6.07
2022-07-30T00:39:38.291Z,5.70
2022-07-30T00:42:05.090Z,5.63
2022-07-30T00:44:31.902Z,5.43
2022-07-30T00:46:59.335Z,6.35
2022-07-30T00:49:26.970Z,5.60
2022-07-30T00:51:54.106Z,5.00
2022-07-30T00:54:21.571Z,5.47
2022-07-30T00:56:49.070Z,5.55
2022-07-30T00:59:16.161Z,5.13
2022-07-30T01:01:42.912Z,5.10
2022-07-30T01:04:14.084Z,5.00
2022-07-30T01:06:40.863Z,4.90
2022-07-30T01:09:08.342Z,5.25
2022-07-30T01:11:40.170Z,5.35
2022-07-30T01:14:08.180Z,5.75
2022-07-30T01:16:36.520Z,5.82
2022-07-30T01:19:26.334Z,5.32
2022-07-30T01:22:06.969Z,5.13
2022-07-30T01:24:36.860Z,5.63
2022-07-30T01:27:04.673Z,5.45
2022-07-30T01:29:33.835Z,4.90
2022-07-30T01:32:04.711Z,4.97
2022-07-30T01:34:33.996Z,5.03
2022-07-30T01:37:02.892Z,5.07
2022-07-30T01:39:30.701Z,4.68
2022-07-30T01:41:58.888Z,4.78
2022-07-30T01:44:27.311Z,5.18
2022-07-30T01:46:55.889Z,4.72
2022-07-30T01:49:26.025Z,5.22
2022-07-30T01:51:54.899Z,5.38
2022-07-30T01:54:25.508Z,4.88
2022-07-30T01:56:55.401Z,5.15
2022-07-30T01:59:25.060Z,5.20
2022-07-30T02:01:52.810Z,4.72
2022-07-30T02:04:19.936Z,5.25
2022-07-30T02:07:11.296Z,4.70
2022-07-30T02:09:47.362Z,4.85
2022-07-30T02:12:30.398Z,4.70
2022-07-30T02:15:20.709Z,4.57
2022-07-30T02:18:01.871Z,5.18
2022-07-30T02:20:32.104Z,5.07
2022-07-30T02:23:09.290Z,4.50
2022-07-30T02:25:42.208Z,4.97
2022-07-30T02:28:13.007Z,4.90
2022-07-30T02:30:52.697Z,4.72
2022-07-30T02:33:28.660Z,5.50
2022-07-30T02:35:57.051Z,4.75
2022-07-30T02:38:28.016Z,4.95
2022-07-30T02:40:58.258Z,5.28
2022-07-30T02:43:26.726Z,5.22
2022-07-30T02:45:53.939Z,5.00
2022-07-30T02:48:34.340Z,5.53
2022-07-30T02:51:04.238Z,5.00
2022-07-30T02:53:32.864Z,5.20
2022-07-30T02:56:01.959Z,5.63
2022-07-30T02:58:29.380Z,5.55
2022-07-30T03:00:57.632Z,5.68
2022-07-30T03:03:29.132Z,6.10
2022-07-30T03:05:57.593Z,6.15
2022-07-30T03:08:27.810Z,6.35
2022-07-30T03:10:56.311Z,6.75
2022-07-30T03:13:25.130Z,6.68
2022-07-30T03:15:53.947Z,6.50
2022-07-30T03:18:22.182Z,6.53
2022-07-30T03:20:53.571Z,6.30
2022-07-30T03:23:21.350Z,6.88
2022-07-30T03:25:54.591Z,6.82
2022-07-30T03:28:23.608Z,7.03
2022-07-30T03:30:52.114Z,7.07
2022-07-30T03:33:20.237Z,7.53
2022-07-30T03:35:49.340Z,7.28
2022-07-30T03:38:16.979Z,6.90
2022-07-30T03:40:45.461Z,7.03
2022-07-30T03:43:32.316Z,6.80
2022-07-30T03:46:03.798Z,6.97
2022-07-30T03:48:35.319Z,6.22
2022-07-30T03:51:07.855Z,6.80
2022-07-30T03:53:35.103Z,6.50
2022-07-30T03:56:20.852Z,6.60
2022-07-30T03:58:53.598Z,6.05
2022-07-30T04:01:25.082Z,6.75
2022-07-30T04:03:55.222Z,6.53
2022-07-30T04:06:22.671Z,6.20
2022-07-30T04:08:49.371Z,6.38
2022-07-30T04:11:16.157Z,6.00
2022-07-30T04:13:47.482Z,6.35
2022-07-30T04:16:39.549Z,6.65
2022-07-30T04:19:35.908Z,6.32
2022-07-30T04:22:03.272Z,6.30
2022-07-30T04:24:33.657Z,6.53
2022-07-30T04:27:02.445Z,5.75
2022-07-30T04:29:30.773Z,6.53
2022-07-30T04:31:58.159Z,6.40
2022-07-30T04:34:53.216Z,6.45
2022-07-30T04:37:38.981Z,6.55
2022-07-30T04:40:06.607Z,6.95
2022-07-30T04:42:33.347Z,6.53
2022-07-30T04:45:11.805Z,6.97
2022-07-30T04:47:49.854Z,7.38
2022-07-30T04:50:22.603Z,6.88
2022-07-30T04:52:51.136Z,6.15
2022-07-30T04:55:27.193Z,6.88
2022-07-30T04:57:55.104Z,7.05
2022-07-30T05:00:22.199Z,6.18
2022-07-30T05:02:52.016Z,6.43
2022-07-30T05:05:20.953Z,6.28
2022-07-30T05:07:48.782Z,6.53
2022-07-30T05:10:15.904Z,6.07
2022-07-30T05:12:42.915Z,5.63
2022-07-30T05:15:11.356Z,6.43
2022-07-30T05:17:38.259Z,6.65
2022-07-30T05:20:08.660Z,5.80
2022-07-30T05:22:58.656Z,7.68
2022-07-30T05:25:25.698Z,6.95
2022-07-30T05:27:58.285Z,7.70
2022-07-30T05:30:27.767Z,7.75
2022-07-30T05:32:57.786Z,6.53
2022-07-30T05:35:28.317Z,7.25
2022-07-30T05:37:55.391Z,6.25
2022-07-30T05:40:22.289Z,6.78
2022-07-30T05:43:07.441Z,6.47
2022-07-30T05:45:34.196Z,6.20
2022-07-30T05:48:00.965Z,7.10
2022-07-30T05:50:28.000Z,6.93
2022-07-30T05:52:56.107Z,6.78
2022-07-30T05:55:43.062Z,6.88
2022-07-30T05:58:29.938Z,6.40
2022-07-30T06:00:56.985Z,6.40
2022-07-30T06:03:27.172Z,6.90
2022-07-30T06:06:13.123Z,5.78
2022-07-30T06:08:40.008Z,6.20
2022-07-30T06:11:08.976Z,6.22
2022-07-30T06:13:38.535Z,5.68
2022-07-30T06:16:05.723Z,6.70
2022-07-30T06:18:34.332Z,5.78
2022-07-30T06:21:02.986Z,5.80
2022-07-30T06:23:59.271Z,5.90
2022-07-30T06:26:48.899Z,5.80
2022-07-30T06:29:19.518Z,5.38
2022-07-30T06:31:46.221Z,5.90
2022-07-30T06:34:12.957Z,6.28
2022-07-30T06:36:42.516Z,5.70
2022-07-30T06:39:14.894Z,5.85
2022-07-30T06:42:20.470Z,5.25
2022-07-30T06:45:06.456Z,5.43
2022-07-30T06:47:59.918Z,6.13
2022-07-30T06:50:29.588Z,5.78
2022-07-30T06:52:56.427Z,6.10
2022-07-30T06:55:25.703Z,4.90
2022-07-30T06:57:57.156Z,5.20
2022-07-30T07:00:44.889Z,5.57
2022-07-30T07:03:13.718Z,5.38
2022-07-30T07:05:40.647Z,5.25
2022-07-30T07:08:07.397Z,5.30
2022-07-30T07:10:38.680Z,5.50
2022-07-30T07:13:22.143Z,5.85
2022-07-30T07:15:49.431Z,5.95
2022-07-30T07:18:20.067Z,5.87
2022-07-30T07:20:52.091Z,5.50
2022-07-30T07:23:19.825Z,5.75
2022-07-30T07:25:49.310Z,5.22
2022-07-30T07:28:16.624Z,5.50
2022-07-30T07:30:44.616Z,6.03
2022-07-30T07:33:13.393Z,5.50
2022-07-30T07:35:49.526Z,5.87
2022-07-30T07:38:24.880Z,5.65
2022-07-30T07:40:53.630Z,5.10
2022-07-30T07:43:20.383Z,5.28
2022-07-30T07:45:47.175Z,5.20
2022-07-30T07:48:14.171Z,4.85
2022-07-30T07:50:59.761Z,5.22
2022-07-30T07:53:29.789Z,4.35
2022-07-30T07:55:57.385Z,5.13
2022-07-30T07:58:26.461Z,5.25
2022-07-30T08:03:36.865Z,4.53
2022-07-30T08:06:18.839Z,4.75
2022-07-30T08:09:17.704Z,4.47
2022-07-30T08:12:04.164Z,3.88
2022-07-30T08:14:51.096Z,4.15
2022-07-30T08:17:55.989Z,3.95
2022-07-30T08:20:35.917Z,3.97
2022-07-30T08:23:02.733Z,4.20
2022-07-30T08:25:29.542Z,4.25
2022-07-30T08:27:56.495Z,4.32
2022-07-30T08:30:24.815Z,4.30
2022-07-30T08:32:51.598Z,5.25
2022-07-30T08:35:19.948Z,4.30
2022-07-30T08:37:46.768Z,4.90
2022-07-30T08:40:15.054Z,4.45
2022-07-30T08:42:52.721Z,5.95
2022-07-30T08:45:20.604Z,4.30
2022-07-30T08:48:16.704Z,4.30
2022-07-30T08:50:46.160Z,4.45
2022-07-30T08:53:48.712Z,4.13
2022-07-30T08:56:16.398Z,3.92
2022-07-30T08:58:46.057Z,4.72
2022-07-30T09:01:16.231Z,3.50
2022-07-30T09:03:44.050Z,3.90
2022-07-30T09:06:11.723Z,4.05
2022-07-30T09:08:38.483Z,3.92
2022-07-30T09:11:05.304Z,3.78
2022-07-30T09:13:35.282Z,3.75
2022-07-30T09:16:02.861Z,4.10
2022-07-30T09:18:34.121Z,3.38
2022-07-30T09:21:14.396Z,3.05
2022-07-30T09:23:41.634Z,2.90
2022-07-30T09:26:35.223Z,2.90
2022-07-30T09:29:28.661Z,3.00
2022-07-30T09:32:14.046Z,4.28
2022-07-30T09:35:12.976Z,3.47
2022-07-30T09:38:12.608Z,2.90
2022-07-30T09:41:00.118Z,3.30
2022-07-30T09:43:46.326Z,3.00
2022-07-30T09:46:20.798Z,2.97
2022-07-30T09:48:48.575Z,3.08
2022-07-30T09:51:16.154Z,3.60
2022-07-30T09:53:54.739Z,2.80
2022-07-30T09:56:25.960Z,3.08
2022-07-30T09:58:53.884Z,3.88
2022-07-30T10:01:24.112Z,2.70
2022-07-30T10:04:36.540Z,3.00
2022-07-30T10:07:25.329Z,2.60
2022-07-30T10:10:00.385Z,2.90
2022-07-30T10:12:28.923Z,2.90
2022-07-30T10:15:01.939Z,2.83
2022-07-30T10:17:34.344Z,2.25
2022-07-30T10:20:18.335Z,2.50
2022-07-30T10:23:09.312Z,2.78
2022-07-30T10:25:49.617Z,2.58
2022-07-30T10:28:53.443Z,2.50
2022-07-30T10:31:48.072Z,2.67
2022-07-30T10:34:07.759Z,2.50
2022-07-30T10:36:35.961Z,2.33
2022-07-30T10:39:03.531Z,2.55
2022-07-30T10:41:48.221Z,2.33
2022-07-30T10:44:27.354Z,2.30
2022-07-30T10:46:54.737Z,2.45
2022-07-30T10:49:25.735Z,2.20
2022-07-30T10:51:57.483Z,2.75
2022-07-30T10:54:33.592Z,2.50
2022-07-30T10:57:04.604Z,2.30
2022-07-30T10:59:58.695Z,2.40
2022-07-30T11:02:30.653Z,2.00
2022-07-30T11:05:17.310Z,2.00
2022-07-30T11:07:47.831Z,2.85
2022-07-30T11:10:43.938Z,2.20
2022-07-30T11:13:10.907Z,2.17
2022-07-30T11:16:04.143Z,3.30
2022-07-30T11:19:53.146Z,2.38
2022-07-30T11:22:22.912Z,2.50
2022-07-30T11:24:50.425Z,2.20
2022-07-30T11:27:36.938Z,1.73
2022-07-30T11:30:29.454Z,1.75
2022-07-30T11:33:05.238Z,1.60
2022-07-30T11:35:35.173Z,2.65
2022-07-30T11:38:18.719Z,1.90
2022-07-30T11:40:45.774Z,1.90
2022-07-30T11:43:34.923Z,3.45
2022-07-30T11:46:12.316Z,1.80
2022-07-30T11:48:57.467Z,2.50
2022-07-30T11:51:24.643Z,2.20
2022-07-30T11:54:07.163Z,1.75
2022-07-30T11:56:34.339Z,1.92
2022-07-30T11:59:08.306Z,1.70
2022-07-30T12:01:35.673Z,2.60
2022-07-30T12:04:04.918Z,1.63
2022-07-30T12:06:36.528Z,1.95
2022-07-30T12:09:03.505Z,1.70
2022-07-30T12:11:35.279Z,2.28
2022-07-30T12:14:02.667Z,1.70
2022-07-30T12:16:31.078Z,1.70
2022-07-30T12:19:09.527Z,1.90
2022-07-30T12:21:36.787Z,1.88
2022-07-30T12:24:10.006Z,1.92
2022-07-30T12:26:37.072Z,1.75
2022-07-30T12:29:06.829Z,2.13
2022-07-30T12:31:34.049Z,1.80
2022-07-30T12:34:05.110Z,1.58
2022-07-30T12:36:34.014Z,1.70
2022-07-30T12:39:02.752Z,1.60
2022-07-30T12:41:42.639Z,1.77
2022-07-30T12:44:10.131Z,1.65
2022-07-30T12:46:43.659Z,1.45
2022-07-30T12:49:22.453Z,1.63
2022-07-30T12:51:52.390Z,1.73
2022-07-30T12:54:27.541Z,1.40
2022-07-30T12:57:00.658Z,1.73
2022-07-30T12:59:28.466Z,1.60
2022-07-30T13:01:57.508Z,1.88
2022-07-30T13:04:24.752Z,1.52
2022-07-30T13:07:11.298Z,1.63
2022-07-30T13:09:39.973Z,1.65
2022-07-30T13:12:07.196Z,1.50
2022-07-30T13:14:34.384Z,1.67
2022-07-30T13:17:04.015Z,3.78
2022-07-30T13:19:31.261Z,4.22
2022-07-30T13:21:58.179Z,1.90
2022-07-30T13:24:24.866Z,2.17
2022-07-30T13:26:51.615Z,2.40
2022-07-30T13:29:18.356Z,2.53
2022-07-30T13:31:45.065Z,1.77
2022-07-30T13:34:12.602Z,1.48
2022-07-30T13:36:39.699Z,1.40
2022-07-30T13:39:06.514Z,1.90
2022-07-30T13:41:34.192Z,1.77
2022-07-30T13:44:00.875Z,1.60
2022-07-30T13:46:27.600Z,1.50
2022-07-30T13:48:55.042Z,1.75
2022-07-30T13:51:21.950Z,1.45
2022-07-30T13:53:48.655Z,2.50
2022-07-30T13:56:16.930Z,3.05
2022-07-30T13:58:46.939Z,3.00
2022-07-30T14:01:17.783Z,1.90
2022-07-30T14:03:49.962Z,1.90
2022-07-30T14:06:18.813Z,1.75
2022-07-30T14:08:45.617Z,1.33
2022-07-30T14:11:12.618Z,1.40
2022-07-30T14:13:39.569Z,1.73
2022-07-30T14:16:22.675Z,1.40
2022-07-30T14:18:53.333Z,1.60
2022-07-30T14:21:20.027Z,1.95
2022-07-30T14:23:46.800Z,1.30
2022-07-30T14:26:14.184Z,1.30
2022-07-30T14:28:40.917Z,1.33
2022-07-30T14:31:07.757Z,1.33
2022-07-30T14:33:34.436Z,1.48
2022-07-30T14:36:01.143Z,1.30
2022-07-30T14:38:27.891Z,1.50
2022-07-30T14:40:54.574Z,1.85
2022-07-30T14:43:21.306Z,1.65
2022-07-30T14:45:50.768Z,1.17
2022-07-30T14:48:17.698Z,1.25
2022-07-30T14:51:11.791Z,1.40
2022-07-30T14:53:31.997Z,1.50
2022-07-30T14:55:58.764Z,1.40
2022-07-30T14:58:25.826Z,1.20
2022-07-30T15:00:52.871Z,1.50
2022-07-30T15:03:20.209Z,1.50
2022-07-30T15:05:52.096Z,1.30
2022-07-30T15:08:19.526Z,1.50
2022-07-30T15:10:46.262Z,1.45
2022-07-30T15:13:12.940Z,1.35
2022-07-30T15:15:41.346Z,1.27
2022-07-30T15:18:10.856Z,1.27
2022-07-30T15:20:37.644Z,1.52
2022-07-30T15:23:04.457Z,1.40
2022-07-30T15:25:32.472Z,1.40
2022-07-30T15:27:59.231Z,1.50
2022-07-30T15:30:25.966Z,1.50
2022-07-30T15:32:54.350Z,1.35
2022-07-30T15:35:21.379Z,1.40
2022-07-30T15:37:48.293Z,1.50
2022-07-30T15:40:15.052Z,1.52
2022-07-30T15:42:42.770Z,1.38
2022-07-30T15:45:18.295Z,1.50
2022-07-30T15:47:46.060Z,1.10
2022-07-30T15:50:13.393Z,1.60
2022-07-30T15:52:40.158Z,1.40
2022-07-30T15:55:07.355Z,1.48
2022-07-30T15:57:34.012Z,2.08
2022-07-30T16:00:00.927Z,1.40
2022-07-30T16:02:28.069Z,1.60
2022-07-30T16:04:54.858Z,1.30
2022-07-30T16:07:21.716Z,1.35
2022-07-30T16:09:48.394Z,1.40
2022-07-30T16:12:15.055Z,1.35
2022-07-30T16:14:41.730Z,1.30
2022-07-30T16:17:13.692Z,1.65
2022-07-30T16:19:44.993Z,1.58
2022-07-30T16:22:12.465Z,1.40
2022-07-30T16:24:48.832Z,1.35
2022-07-30T16:27:17.259Z,1.40
2022-07-30T16:29:43.967Z,1.50
2022-07-30T16:32:10.840Z,1.70
2022-07-30T16:34:37.659Z,1.40
2022-07-30T16:37:04.572Z,1.40
2022-07-30T16:39:31.861Z,1.45
2022-07-30T16:41:58.607Z,1.50
2022-07-30T16:44:27.076Z,1.40
2022-07-30T16:46:53.964Z,1.30
2022-07-30T16:49:20.726Z,1.42
2022-07-30T16:51:47.510Z,1.40
2022-07-30T16:54:14.179Z,1.30
2022-07-30T16:56:40.885Z,1.35
2022-07-30T16:59:11.829Z,1.35
2022-07-30T17:01:40.431Z,1.27
2022-07-30T17:04:07.134Z,1.48
2022-07-30T17:06:34.001Z,1.30
2022-07-30T17:09:00.623Z,1.58
2022-07-30T17:11:47.441Z,1.10
2022-07-30T17:14:14.882Z,1.40
2022-07-30T17:16:41.859Z,1.20
2022-07-30T17:19:09.289Z,1.60
2022-07-30T17:21:38.071Z,1.50
2022-07-30T17:24:11.097Z,1.33
2022-07-30T17:26:40.485Z,1.27
2022-07-30T17:29:10.776Z,1.60
2022-07-30T17:31:43.269Z,1.42
2022-07-30T17:34:10.882Z,1.10
2022-07-30T17:36:38.775Z,1.40
2022-07-30T17:39:05.993Z,1.38
2022-07-30T17:41:32.934Z,1.40
2022-07-30T17:43:59.828Z,1.70
2022-07-30T17:46:27.194Z,1.27
2022-07-30T17:48:54.200Z,1.60
2022-07-30T17:51:20.939Z,1.70
2022-07-30T17:53:47.583Z,1.27
2022-07-30T17:56:26.666Z,1.63
2022-07-30T17:58:54.194Z,1.35
2022-07-30T18:01:21.026Z,1.40
2022-07-30T18:03:47.718Z,2.00
2022-07-30T18:06:14.400Z,1.50
2022-07-30T18:08:41.083Z,2.08
2022-07-30T18:11:10.665Z,1.58
2022-07-30T18:13:40.271Z,1.70
2022-07-30T18:16:08.324Z,1.73
2022-07-30T18:18:35.044Z,1.50
2022-07-30T18:21:01.976Z,1.50
2022-07-30T18:23:34.993Z,1.50
2022-07-30T18:26:02.015Z,1.50
2022-07-30T18:28:29.247Z,1.50
2022-07-30T18:30:56.022Z,1.50
2022-07-30T18:33:23.148Z,1.50
2022-07-30T18:35:49.979Z,1.80
2022-07-30T18:38:16.776Z,1.50
2022-07-30T18:40:44.978Z,1.60
2022-07-30T18:43:11.652Z,1.70
2022-07-30T18:45:38.376Z,1.67
2022-07-30T18:48:05.478Z,1.65
2022-07-30T18:50:32.966Z,1.58
2022-07-30T18:53:00.735Z,1.65
2022-07-30T18:55:41.832Z,1.90
2022-07-30T18:58:08.497Z,1.70
2022-07-30T19:00:35.836Z,1.55
2022-07-30T19:03:02.891Z,1.60
2022-07-30T19:05:29.805Z,1.90
2022-07-30T19:07:58.293Z,1.83
2022-07-30T19:10:26.622Z,1.83
2022-07-30T19:12:54.505Z,1.75
2022-07-30T19:15:21.481Z,1.70
2022-07-30T19:17:51.818Z,2.05
2022-07-30T19:20:19.575Z,1.95
2022-07-30T19:22:46.937Z,1.85
2022-07-30T19:25:13.926Z,1.70
2022-07-30T19:27:40.689Z,1.77
2022-07-30T19:30:07.942Z,2.22
2022-07-30T19:32:34.611Z,2.13
2022-07-30T19:35:01.320Z,1.77
2022-07-30T19:37:28.016Z,2.00
2022-07-30T19:40:05.368Z,2.28
2022-07-30T19:42:33.971Z,2.10
2022-07-30T19:45:11.160Z,1.85
2022-07-30T19:47:39.701Z,2.55
2022-07-30T19:50:07.644Z,1.98
2022-07-30T19:52:36.264Z,2.17
2022-07-30T19:55:03.940Z,2.22
2022-07-30T19:57:52.882Z,2.10
2022-07-30T20:00:25.131Z,1.88
2022-07-30T20:02:55.646Z,2.00
2022-07-30T20:05:25.264Z,2.25
2022-07-30T20:07:57.369Z,13.77
2022-07-30T20:10:24.787Z,10.05
2022-07-30T20:12:52.539Z,31.60
2022-07-30T20:15:20.084Z,11.38
2022-07-30T20:17:47.162Z,8.57
2022-07-30T20:20:15.769Z,5.88
2022-07-30T20:22:43.343Z,7.05
2022-07-30T20:25:11.224Z,5.70
2022-07-30T20:27:40.579Z,4.97
2022-07-30T20:30:09.305Z,3.70
2022-07-30T20:32:37.772Z,3.55
2022-07-30T20:35:07.474Z,3.58
2022-07-30T20:37:40.256Z,6.15
2022-07-30T20:40:21.711Z,6.57
2022-07-30T20:42:49.994Z,17.83
2022-07-30T20:45:16.850Z,5.53
2022-07-30T20:47:52.427Z,3.80
2022-07-30T20:50:30.900Z,3.53
2022-07-30T20:52:58.764Z,3.30
2022-07-30T20:55:26.590Z,3.05
2022-07-30T20:58:00.271Z,3.47
2022-07-30T21:00:33.965Z,3.17
2022-07-30T21:03:03.212Z,2.80
2022-07-30T21:05:31.847Z,2.90
2022-07-30T21:07:58.814Z,3.20
2022-07-30T21:10:25.552Z,3.97
2022-07-30T21:12:56.444Z,4.18
2022-07-30T21:15:25.334Z,3.92
2022-07-30T21:17:53.251Z,3.67
2022-07-30T21:20:27.433Z,3.72
2022-07-30T21:22:55.965Z,3.50
2022-07-30T21:25:23.524Z,3.85
2022-07-30T21:28:02.705Z,3.05
2022-07-30T21:30:30.928Z,2.92
2022-07-30T21:32:57.839Z,2.70
2022-07-30T21:35:24.942Z,3.00
2022-07-30T21:37:58.349Z,2.80
2022-07-30T21:40:25.168Z,2.65
2022-07-30T21:42:51.880Z,2.83
2022-07-30T21:45:19.890Z,2.75
2022-07-30T21:47:47.525Z,2.55
2022-07-30T21:50:18.767Z,2.78
2022-07-30T21:52:47.559Z,3.30
2022-07-30T21:55:14.310Z,4.18
2022-07-30T21:57:42.182Z,3.53
2022-07-30T22:00:14.996Z,3.88
2022-07-30T22:02:52.757Z,3.90
2022-07-30T22:05:20.172Z,3.50
2022-07-30T22:07:50.098Z,3.10
2022-07-30T22:10:21.295Z,3.50
2022-07-30T22:12:48.698Z,3.50
2022-07-30T22:15:15.499Z,3.40
2022-07-30T22:17:58.346Z,3.17
2022-07-30T22:20:29.046Z,3.80
2022-07-30T22:22:57.599Z,3.80
2022-07-30T22:25:43.748Z,3.65
2022-07-30T22:28:12.088Z,3.80
2022-07-30T22:30:40.811Z,3.80
2022-07-30T22:33:15.162Z,3.33
2022-07-30T22:35:46.713Z,3.13
2022-07-30T22:38:17.361Z,3.50
2022-07-30T22:40:46.465Z,3.45
2022-07-30T22:43:13.984Z,3.78
2022-07-30T22:48:29.455Z,3.83
2022-07-30T22:50:56.194Z,3.50
2022-07-30T22:54:03.588Z,3.47
2022-07-30T22:56:15.505Z,3.72
2022-07-30T22:58:42.839Z,3.40
2022-07-30T23:01:09.626Z,3.80
2022-07-30T23:03:37.778Z,3.72
2022-07-30T23:06:04.535Z,3.58
2022-07-30T23:08:33.310Z,4.05
2022-07-30T23:11:00.296Z,3.85
2022-07-30T23:12:30.392Z,3.78
2022-07-30T23:13:28.676Z,3.70
2022-07-30T23:15:55.655Z,3.97
2022-07-30T23:18:22.331Z,3.83
2022-07-30T23:20:49.009Z,3.72
2022-07-30T23:23:15.694Z,3.88
2022-07-30T23:25:42.374Z,3.75
2022-07-30T23:28:09.049Z,4.00
2022-07-30T23:30:35.853Z,3.80
2022-07-30T23:33:02.947Z,3.42
2022-07-30T23:35:30.378Z,4.20
2022-07-30T23:37:57.396Z,4.00
2022-07-30T23:40:24.171Z,3.47
2022-07-30T23:42:51.916Z,3.85
2022-07-30T23:45:19.024Z,3.83
2022-07-30T23:48:00.800Z,4.55
2022-07-30T23:50:29.794Z,4.82
2022-07-30T23:52:56.463Z,4.70
2022-07-30T23:55:23.320Z,4.65
2022-07-30T23:57:49.986Z,4.57
